Time;durP1;ratioP1;P1;durP2;ratioP2;P2;SDS_P1;SDS_P2;PMS_P1;PMS_P2;Temp;Humidity;BMP_temperature;BMP_pressure;BME280_temperature;BME280_humidity;BME280_pressure;Samples;Min_cycle;Max_cycle;Signal;HPM_P1;HPM_P2
2023/12/28 00:00:26;;;;;;;164.25;96.45;;;2.90;1.00;;;;;;5041186;28;20054;-82
2023/12/28 00:02:54;;;;;;;165.45;98.15;;;2.80;1.00;;;;;;5040303;28;20045;-81
2023/12/28 00:05:23;;;;;;;173.40;101.82;;;2.80;1.00;;;;;;5039431;28;20045;-79
2023/12/28 00:07:56;;;;;;;166.93;97.85;;;2.90;1.00;;;;;;5043721;28;20037;-79
2023/12/28 00:10:24;;;;;;;162.50;94.60;;;2.80;1.00;;;;;;5043065;28;20045;-79
2023/12/28 00:12:51;;;;;;;159.55;98.90;;;2.90;1.00;;;;;;5045295;28;20489;-80
2023/12/28 00:15:18;;;;;;;156.15;90.35;;;2.80;1.00;;;;;;5038207;28;20041;-79
2023/12/28 00:17:46;;;;;;;162.98;93.82;;;2.80;1.00;;;;;;5039987;28;20037;-80
2023/12/28 00:20:13;;;;;;;165.27;93.72;;;2.70;1.00;;;;;;5037237;28;20043;-79
2023/12/28 00:22:42;;;;;;;155.68;94.05;;;2.80;1.00;;;;;;5040853;28;20073;-79
2023/12/28 00:25:11;;;;;;;179.85;100.82;;;2.80;1.00;;;;;;5040984;28;20460;-81
2023/12/28 00:27:38;;;;;;;161.60;94.88;;;2.80;1.00;;;;;;5038648;28;20448;-79
2023/12/28 00:30:07;;;;;;;145.73;82.40;;;2.80;1.00;;;;;;5045745;28;20041;-79
2023/12/28 00:32:35;;;;;;;132.00;79.13;;;2.90;1.00;;;;;;5050910;28;20276;-80
2023/12/28 00:35:02;;;;;;;144.75;83.05;;;2.90;1.00;;;;;;5054543;28;20060;-80
2023/12/28 00:37:30;;;;;;;141.05;81.13;;;2.90;1.00;;;;;;5052259;28;20045;-80
2023/12/28 00:39:59;;;;;;;136.07;80.05;;;2.90;1.00;;;;;;5045378;28;20065;-79
2023/12/28 00:42:26;;;;;;;136.88;83.22;;;2.90;1.00;;;;;;5038876;28;20696;-80
2023/12/28 00:44:54;;;;;;;160.73;92.57;;;3.00;1.00;;;;;;5039724;28;20046;-80
2023/12/28 00:47:21;;;;;;;170.70;95.97;;;2.90;99.90;;;;;;5038853;28;20048;-79
2023/12/28 00:49:49;;;;;;;153.13;87.35;;;2.80;99.90;;;;;;5040000;28;20140;-79
2023/12/28 00:52:17;;;;;;;158.45;91.13;;;2.90;99.90;;;;;;5037794;28;20076;-81
2023/12/28 00:54:45;;;;;;;154.38;90.57;;;3.00;1.00;;;;;;5036859;28;20401;-81
2023/12/28 00:57:13;;;;;;;160.35;92.32;;;3.00;99.90;;;;;;5038062;28;20033;-80
2023/12/28 00:59:42;;;;;;;171.57;95.47;;;3.00;99.90;;;;;;5037884;28;20053;-79
2023/12/28 01:02:09;;;;;;;180.15;100.75;;;3.00;1.00;;;;;;5039551;28;20103;-81
2023/12/28 01:04:36;;;;;;;183.80;105.60;;;2.90;45.10;;;;;;5037543;28;20140;-79
2023/12/28 01:07:05;;;;;;;173.13;102.60;;;2.90;1.00;;;;;;5037323;28;20136;-79
2023/12/28 01:09:33;;;;;;;200.05;116.10;;;2.80;1.00;;;;;;5040544;28;20119;-79
2023/12/28 01:12:00;;;;;;;213.55;119.20;;;2.80;99.90;;;;;;5039984;28;20049;-80
2023/12/28 01:14:29;;;;;;;198.88;110.95;;;2.80;1.00;;;;;;5038481;28;20461;-79
2023/12/28 01:16:57;;;;;;;192.07;109.50;;;2.70;52.80;;;;;;5036617;28;20140;-80
2023/12/28 01:19:24;;;;;;;182.85;106.10;;;2.70;99.90;;;;;;5040328;28;20115;-79
2023/12/28 01:21:52;;;;;;;182.77;106.80;;;2.70;1.00;;;;;;5037553;28;20071;-80
2023/12/28 01:24:21;;;;;;;173.60;99.05;;;2.70;1.00;;;;;;5036934;28;20543;-79
2023/12/28 01:26:48;;;;;;;181.23;102.32;;;2.70;1.00;;;;;;5037364;28;20048;-79
2023/12/28 01:29:16;;;;;;;171.77;99.47;;;2.70;1.00;;;;;;5045466;28;20041;-80
2023/12/28 01:31:44;;;;;;;185.52;106.22;;;2.70;1.00;;;;;;5045111;28;20037;-79
2023/12/28 01:34:12;;;;;;;185.02;109.43;;;2.70;1.00;;;;;;5043137;28;20041;-80
2023/12/28 01:36:44;;;;;;;200.63;113.40;;;2.60;99.90;;;;;;5039557;28;20099;-81
2023/12/28 01:39:11;;;;;;;163.32;96.10;;;2.60;1.00;;;;;;5038680;28;20057;-80
2023/12/28 01:41:39;;;;;;;156.50;95.97;;;2.50;1.00;;;;;;5039162;28;20041;-80
2023/12/28 01:44:06;;;;;;;168.20;99.97;;;2.50;1.00;;;;;;5043908;28;20049;-81
2023/12/28 01:46:35;;;;;;;154.93;92.07;;;2.40;1.00;;;;;;5041598;28;20053;-80
2023/12/28 01:49:05;;;;;;;157.73;92.97;;;2.50;1.00;;;;;;5042514;28;20042;-81
2023/12/28 01:51:34;;;;;;;166.00;97.55;;;2.50;1.00;;;;;;5042536;28;20080;-81
2023/12/28 01:54:01;;;;;;;159.80;95.10;;;2.40;1.00;;;;;;5043285;28;20171;-81
2023/12/28 01:56:29;;;;;;;156.65;90.68;;;2.40;1.00;;;;;;5043702;28;20049;-80
2023/12/28 01:58:57;;;;;;;147.90;89.00;;;2.50;1.00;;;;;;5044328;28;20049;-79
2023/12/28 02:01:26;;;;;;;154.48;89.20;;;2.50;1.00;;;;;;5044788;28;20049;-82
2023/12/28 02:03:55;;;;;;;161.18;90.60;;;2.50;1.00;;;;;;5044137;28;20404;-81
2023/12/28 02:06:25;;;;;;;155.88;88.32;;;2.40;1.00;;;;;;5045066;28;20041;-81
2023/12/28 02:08:52;;;;;;;166.05;94.43;;;2.40;1.00;;;;;;5046830;28;20110;-80
2023/12/28 02:11:21;;;;;;;151.40;90.30;;;2.40;1.00;;;;;;5044253;28;20033;-83
2023/12/28 02:13:48;;;;;;;149.07;88.10;;;2.40;1.00;;;;;;5044343;28;20144;-81
2023/12/28 02:16:22;;;;;;;145.02;86.70;;;2.30;1.00;;;;;;5043766;28;20058;-78
2023/12/28 02:18:51;;;;;;;149.20;87.35;;;2.20;1.00;;;;;;5077148;28;20068;-79
2023/12/28 02:21:21;;;;;;;147.00;82.03;;;2.20;1.00;;;;;;5053794;28;20033;-81
2023/12/28 02:23:51;;;;;;;165.23;92.07;;;2.20;1.00;;;;;;5049366;28;20091;-80
2023/12/28 02:26:20;;;;;;;142.63;85.97;;;2.20;1.00;;;;;;5046372;28;20057;-81
2023/12/28 02:28:48;;;;;;;153.32;85.75;;;2.20;1.00;;;;;;5048739;28;20067;-80
2023/12/28 02:31:22;;;;;;;122.80;71.93;;;2.20;1.00;;;;;;5052401;28;20105;-80
2023/12/28 02:33:52;;;;;;;121.85;68.28;;;2.20;1.00;;;;;;5087189;28;20034;-80
2023/12/28 02:36:24;;;;;;;122.00;68.82;;;2.20;78.20;;;;;;5064776;28;20033;-81
2023/12/28 02:38:55;;;;;;;122.55;70.85;;;2.20;99.90;;;;;;5066012;28;20044;-79
2023/12/28 02:41:25;;;;;;;140.70;75.63;;;2.20;99.90;;;;;;5064396;28;20068;-80
2023/12/28 02:43:53;;;;;;;130.40;80.88;;;2.20;99.90;;;;;;5043259;28;20037;-80
2023/12/28 02:46:20;;;;;;;138.30;80.75;;;2.10;99.90;;;;;;5041355;28;20044;-80
2023/12/28 02:48:52;;;;;;;125.80;74.22;;;2.10;99.90;;;;;;5043068;28;20041;-79
2023/12/28 02:51:20;;;;;;;119.57;72.47;;;2.20;99.90;;;;;;5043480;28;20044;-81
2023/12/28 02:53:48;;;;;;;115.75;70.60;;;2.20;99.90;;;;;;5047094;28;20040;-80
2023/12/28 02:56:17;;;;;;;122.22;72.20;;;2.30;99.90;;;;;;5043673;28;20136;-82
2023/12/28 02:58:46;;;;;;;114.70;71.00;;;2.30;99.90;;;;;;5046545;28;20068;-81
2023/12/28 03:01:13;;;;;;;121.78;73.57;;;2.30;99.90;;;;;;5045047;28;20049;-80
2023/12/28 03:03:41;;;;;;;123.43;75.97;;;2.40;95.20;;;;;;5038125;28;20099;-82
2023/12/28 03:06:08;;;;;;;119.70;72.57;;;2.30;1.00;;;;;;5045889;28;20064;-81
2023/12/28 03:08:36;;;;;;;124.05;74.25;;;2.30;1.00;;;;;;5043555;28;20497;-80
2023/12/28 03:11:04;;;;;;;129.15;73.75;;;2.20;1.00;;;;;;5041974;28;20095;-80
2023/12/28 03:13:32;;;;;;;123.32;71.93;;;2.20;1.00;;;;;;5042511;28;20041;-81
2023/12/28 03:16:01;;;;;;;121.78;70.85;;;2.10;1.00;;;;;;5043200;28;20063;-80
2023/12/28 03:18:29;;;;;;;116.65;65.00;;;2.10;1.00;;;;;;5040675;28;20107;-80
2023/12/28 03:20:56;;;;;;;110.35;62.45;;;2.20;1.00;;;;;;5045368;28;20038;-80
2023/12/28 03:23:24;;;;;;;107.28;60.40;;;2.20;1.00;;;;;;5045014;28;20045;-80
2023/12/28 03:25:51;;;;;;;103.15;59.63;;;2.20;1.00;;;;;;5047170;28;20045;-82
2023/12/28 03:28:21;;;;;;;112.80;66.38;;;2.10;1.00;;;;;;5048686;28;20048;-80
2023/12/28 03:30:49;;;;;;;104.15;64.47;;;2.10;4.70;;;;;;5039134;28;20053;-80
2023/12/28 03:33:18;;;;;;;115.53;67.85;;;2.10;8.00;;;;;;5041374;28;20390;-80
2023/12/28 03:35:45;;;;;;;108.28;68.18;;;2.10;1.00;;;;;;5038888;28;20052;-80
2023/12/28 03:38:15;;;;;;;121.93;71.30;;;2.00;1.00;;;;;;5040134;28;20501;-79
2023/12/28 03:40:43;;;;;;;116.95;72.88;;;2.00;1.00;;;;;;5042321;28;20061;-81
2023/12/28 03:43:10;;;;;;;120.78;67.18;;;2.00;2.50;;;;;;5042109;28;20042;-81
2023/12/28 03:45:38;;;;;;;129.38;68.28;;;1.90;11.90;;;;;;5040438;28;20125;-79
2023/12/28 03:48:06;;;;;;;128.90;67.80;;;1.80;1.00;;;;;;5041826;28;20148;-81
2023/12/28 03:50:35;;;;;;;115.32;64.05;;;1.90;99.90;;;;;;5039589;28;20439;-81
2023/12/28 03:53:03;;;;;;;98.13;53.05;;;1.80;99.90;;;;;;5039417;28;20050;-81
2023/12/28 03:55:32;;;;;;;94.70;48.65;;;1.80;99.90;;;;;;5041308;28;20125;-82
2023/12/28 03:58:00;;;;;;;92.32;52.25;;;1.80;99.90;;;;;;5038719;28;20051;-80
2023/12/28 04:00:28;;;;;;;96.15;54.88;;;1.80;99.90;;;;;;5037616;28;20135;-79
2023/12/28 04:02:58;;;;;;;95.90;54.90;;;1.90;99.90;;;;;;5037869;28;20037;-81
2023/12/28 04:05:27;;;;;;;99.35;55.28;;;1.80;99.90;;;;;;5037369;28;20048;-80
2023/12/28 04:07:56;;;;;;;96.43;53.30;;;1.80;99.90;;;;;;5042415;28;20041;-81
2023/12/28 04:10:31;;;;;;;125.13;53.72;;;1.80;99.90;;;;;;5043390;28;20493;-81
2023/12/28 04:12:59;;;;;;;89.50;50.53;;;1.70;99.90;;;;;;5045967;28;20052;-81
2023/12/28 04:15:27;;;;;;;90.82;47.90;;;1.70;99.90;;;;;;5046578;28;20099;-81
2023/12/28 04:17:55;;;;;;;92.45;49.00;;;1.60;99.90;;;;;;5046008;28;20052;-81
2023/12/28 04:20:22;;;;;;;89.25;49.00;;;1.70;99.90;;;;;;5058459;23;20076;-79
2023/12/28 04:22:50;;;;;;;80.85;44.67;;;1.70;99.90;;;;;;5052791;28;20469;-77
2023/12/28 04:25:19;;;;;;;79.35;46.78;;;1.70;99.90;;;;;;5068086;28;20040;-78
2023/12/28 04:27:47;;;;;;;92.75;51.15;;;1.70;99.90;;;;;;5065085;28;20044;-78
2023/12/28 04:30:14;;;;;;;97.30;52.05;;;1.70;99.90;;;;;;5066335;28;20079;-77
2023/12/28 04:32:42;;;;;;;96.65;52.90;;;1.70;99.90;;;;;;5062778;28;20040;-77
2023/12/28 04:35:10;;;;;;;111.68;56.83;;;1.80;99.90;;;;;;5058647;28;20099;-77
2023/12/28 04:37:38;;;;;;;93.30;52.67;;;1.80;99.90;;;;;;5087035;28;20430;-75
2023/12/28 04:40:06;;;;;;;102.05;54.38;;;1.80;99.90;;;;;;5068244;28;20483;-75
2023/12/28 04:42:35;;;;;;;98.85;55.20;;;1.90;99.90;;;;;;5071774;28;20044;-75
2023/12/28 04:45:03;;;;;;;106.07;57.58;;;1.90;99.90;;;;;;5064478;28;20388;-74
2023/12/28 04:47:31;;;;;;;101.28;55.83;;;2.00;99.90;;;;;;5071251;28;20067;-75
2023/12/28 04:50:00;;;;;;;95.07;52.90;;;2.00;99.90;;;;;;5087576;28;20044;-75
2023/12/28 04:52:28;;;;;;;93.40;54.92;;;1.90;99.90;;;;;;5074039;28;20051;-80
2023/12/28 04:54:56;;;;;;;105.00;57.28;;;1.90;99.90;;;;;;5067558;28;20147;-78
2023/12/28 04:57:25;;;;;;;106.97;56.80;;;1.80;99.90;;;;;;5067139;28;20078;-76
2023/12/28 04:59:54;;;;;;;108.10;55.47;;;1.80;99.90;;;;;;5074762;28;20047;-78
2023/12/28 05:02:22;;;;;;;106.20;57.92;;;1.70;99.90;;;;;;5073926;28;20082;-77
2023/12/28 05:04:49;;;;;;;110.90;60.22;;;1.70;99.90;;;;;;5072613;28;20045;-77
2023/12/28 05:07:17;;;;;;;127.32;64.20;;;1.70;99.90;;;;;;5074088;28;20464;-78
2023/12/28 05:09:44;;;;;;;132.38;67.15;;;1.60;99.90;;;;;;5064367;28;20063;-79
2023/12/28 05:12:12;;;;;;;125.10;61.30;;;1.50;99.90;;;;;;5073998;28;20040;-79
2023/12/28 05:14:40;;;;;;;122.22;62.25;;;1.40;99.90;;;;;;5073450;28;20036;-77
2023/12/28 05:17:09;;;;;;;110.82;59.60;;;1.40;99.90;;;;;;5072990;28;20238;-78
2023/12/28 05:19:36;;;;;;;110.60;57.95;;;1.40;99.90;;;;;;5065636;28;20049;-76
2023/12/28 05:22:06;;;;;;;111.60;56.28;;;1.40;99.90;;;;;;5061800;28;20044;-76
2023/12/28 05:24:34;;;;;;;112.32;56.70;;;1.40;99.90;;;;;;5075780;28;20122;-78
2023/12/28 05:27:01;;;;;;;99.07;52.58;;;1.40;99.90;;;;;;5078789;28;20515;-79
2023/12/28 05:29:28;;;;;;;105.45;54.08;;;1.40;99.90;;;;;;5069670;28;20040;-76
2023/12/28 05:31:56;;;;;;;116.22;60.05;;;1.40;99.90;;;;;;5076586;28;20041;-76
2023/12/28 05:34:25;;;;;;;115.20;62.75;;;1.40;99.90;;;;;;5078845;28;20107;-76
2023/12/28 05:36:52;;;;;;;146.38;70.18;;;1.50;99.90;;;;;;5068628;28;20037;-77
2023/12/28 05:39:20;;;;;;;163.57;73.78;;;1.60;99.90;;;;;;5078565;28;20040;-79
2023/12/28 05:41:50;;;;;;;151.88;76.40;;;1.50;99.90;;;;;;5081108;28;20040;-77
2023/12/28 05:44:17;;;;;;;164.75;83.38;;;1.50;99.90;;;;;;5079323;28;20563;-77
2023/12/28 05:46:45;;;;;;;179.15;87.00;;;1.50;99.90;;;;;;5079746;28;20050;-77
2023/12/28 05:49:12;;;;;;;193.40;89.75;;;1.40;99.90;;;;;;5071157;28;20115;-78
2023/12/28 05:51:42;;;;;;;158.07;80.63;;;1.20;99.90;;;;;;5075382;28;20058;-77
2023/12/28 05:54:09;;;;;;;167.38;82.07;;;1.20;99.90;;;;;;5074752;28;20037;-77
2023/12/28 05:56:37;;;;;;;153.20;75.97;;;1.30;99.90;;;;;;5078587;28;20036;-77
2023/12/28 05:59:04;;;;;;;142.05;73.63;;;1.40;99.90;;;;;;5075792;28;20044;-76
2023/12/28 06:01:32;;;;;;;148.20;78.57;;;1.40;99.90;;;;;;5077452;28;20131;-76
2023/12/28 06:03:59;;;;;;;144.15;77.18;;;1.50;99.90;;;;;;5077116;28;20156;-76
2023/12/28 06:06:27;;;;;;;150.93;76.30;;;1.40;99.90;;;;;;5074122;28;20068;-76
2023/12/28 06:08:56;;;;;;;143.50;75.00;;;1.50;99.90;;;;;;5069465;28;20078;-76
2023/12/28 06:11:23;;;;;;;155.60;81.50;;;1.50;99.90;;;;;;5069126;28;20040;-75
2023/12/28 06:13:51;;;;;;;142.13;71.07;;;1.40;99.90;;;;;;5069968;28;20060;-76
2023/12/28 06:16:18;;;;;;;145.68;74.80;;;1.40;99.90;;;;;;5077239;28;20128;-79
2023/12/28 06:18:46;;;;;;;131.85;67.88;;;1.40;99.90;;;;;;5087179;28;20041;-76
2023/12/28 06:21:13;;;;;;;123.15;68.53;;;1.40;99.90;;;;;;5062109;28;20107;-77
2023/12/28 06:23:40;;;;;;;115.55;61.47;;;1.50;99.90;;;;;;5060333;28;20127;-75
2023/12/28 06:26:09;;;;;;;129.60;63.60;;;1.50;99.90;;;;;;5066069;28;20128;-74
2023/12/28 06:28:37;;;;;;;134.00;69.40;;;1.60;99.90;;;;;;5066646;28;20040;-75
2023/12/28 06:31:05;;;;;;;132.80;65.28;;;1.60;99.90;;;;;;5076065;28;20064;-77
2023/12/28 06:33:33;;;;;;;119.88;57.22;;;1.60;99.90;;;;;;5063775;28;20410;-76
2023/12/28 06:36:06;;;;;;;147.32;76.18;;;1.60;99.90;;;;;;5064687;28;20055;-76
2023/12/28 06:38:34;;;;;;;158.25;81.03;;;1.60;99.90;;;;;;5065962;28;20365;-77
2023/12/28 06:41:01;;;;;;;169.25;81.28;;;1.60;99.90;;;;;;5071378;28;20096;-75
2023/12/28 06:43:30;;;;;;;154.38;79.30;;;1.60;99.90;;;;;;5072778;28;20092;-76
2023/12/28 06:45:57;;;;;;;162.27;80.22;;;1.60;99.90;;;;;;5071494;28;20073;-79
2023/12/28 06:48:26;;;;;;;160.73;77.85;;;1.70;99.90;;;;;;5074862;28;20120;-75
2023/12/28 06:50:53;;;;;;;145.23;74.47;;;1.70;99.90;;;;;;5074828;28;20108;-79
2023/12/28 06:53:21;;;;;;;136.32;73.50;;;1.70;99.90;;;;;;5078237;28;20045;-76
2023/12/28 06:55:48;;;;;;;134.45;71.72;;;1.60;99.90;;;;;;5079476;28;20041;-78
2023/12/28 06:58:16;;;;;;;126.30;64.68;;;1.60;99.90;;;;;;5081083;28;20045;-75
2023/12/28 07:00:45;;;;;;;129.55;68.65;;;1.60;99.90;;;;;;5079664;28;20078;-77
2023/12/28 07:03:12;;;;;;;138.77;73.90;;;1.60;99.90;;;;;;5075976;28;20048;-76
2023/12/28 07:05:40;;;;;;;175.48;90.00;;;1.60;99.90;;;;;;5068344;28;20025;-76
2023/12/28 07:08:07;;;;;;;170.65;86.75;;;1.70;99.90;;;;;;5061922;28;20045;-77
2023/12/28 07:10:35;;;;;;;178.18;85.80;;;1.70;99.90;;;;;;5064966;28;20043;-76
2023/12/28 07:13:04;;;;;;;173.23;85.97;;;1.80;99.90;;;;;;5067032;28;20037;-76
2023/12/28 07:15:31;;;;;;;184.52;100.57;;;1.80;99.90;;;;;;5069471;28;20040;-79
2023/12/28 07:18:00;;;;;;;218.68;111.82;;;1.80;99.90;;;;;;5064724;28;20135;-79
2023/12/28 07:20:28;;;;;;;250.25;123.15;;;1.80;99.90;;;;;;5070579;28;20131;-76
2023/12/28 07:22:55;;;;;;;238.98;127.05;;;1.60;99.90;;;;;;5078389;28;20044;-78
2023/12/28 07:25:23;;;;;;;231.98;119.45;;;1.70;99.90;;;;;;5071265;28;20430;-77
2023/12/28 07:27:50;;;;;;;192.90;106.85;;;1.80;99.90;;;;;;5085832;28;20040;-77
2023/12/28 07:30:18;;;;;;;156.75;87.90;;;1.80;99.90;;;;;;5078063;28;20185;-77
2023/12/28 07:32:45;;;;;;;223.98;119.95;;;1.90;99.90;;;;;;5083673;28;20043;-77
2023/12/28 07:35:14;;;;;;;240.23;132.55;;;2.00;99.90;;;;;;5080961;28;20040;-76
2023/12/28 07:37:42;;;;;;;225.50;127.85;;;2.10;99.90;;;;;;5076643;28;20060;-77
2023/12/28 07:40:10;;;;;;;231.88;124.07;;;2.20;99.90;;;;;;5081255;28;20488;-78
2023/12/28 07:42:37;;;;;;;158.35;84.47;;;2.20;86.00;;;;;;5076537;28;20492;-77
2023/12/28 07:45:07;;;;;;;199.73;111.68;;;2.20;1.00;;;;;;5077185;28;20055;-77
2023/12/28 07:47:35;;;;;;;223.23;126.78;;;2.20;1.00;;;;;;5072637;28;20147;-79
2023/12/28 07:50:03;;;;;;;215.88;121.53;;;2.40;49.70;;;;;;5078130;28;20058;-78
2023/12/28 07:52:32;;;;;;;200.38;113.53;;;2.50;1.00;;;;;;5075918;28;20054;-76
2023/12/28 07:54:59;;;;;;;196.10;114.50;;;2.50;1.00;;;;;;5072951;28;20067;-76
2023/12/28 07:57:27;;;;;;;203.55;117.20;;;2.60;1.00;;;;;;5074867;28;20044;-77
2023/12/28 07:59:54;;;;;;;223.25;119.95;;;2.70;1.00;;;;;;5076344;28;20049;-78
2023/12/28 08:02:22;;;;;;;228.07;124.13;;;2.60;99.90;;;;;;5064823;28;20044;-79
2023/12/28 08:04:49;;;;;;;224.93;122.18;;;2.70;99.90;;;;;;5071563;28;20393;-79
2023/12/28 08:07:17;;;;;;;231.57;132.35;;;2.80;1.00;;;;;;5069703;28;20094;-80
2023/12/28 08:09:46;;;;;;;236.75;129.52;;;2.80;99.90;;;;;;5083083;28;20032;-76
2023/12/28 08:12:13;;;;;;;235.95;128.88;;;2.90;99.90;;;;;;5080877;28;20128;-79
2023/12/28 08:14:41;;;;;;;219.95;128.40;;;2.90;99.90;;;;;;5076131;28;20136;-78
2023/12/28 08:17:08;;;;;;;217.18;125.78;;;3.00;99.90;;;;;;5080948;28;20130;-79
2023/12/28 08:19:36;;;;;;;204.38;114.75;;;3.00;28.00;;;;;;5074824;28;20147;-77
2023/12/28 08:22:04;;;;;;;209.88;117.95;;;3.00;1.00;;;;;;5074733;28;20105;-76
2023/12/28 08:24:32;;;;;;;213.70;119.28;;;3.00;1.00;;;;;;5071012;28;20053;-77
2023/12/28 08:27:01;;;;;;;201.63;116.35;;;3.10;1.00;;;;;;5070589;28;20451;-76
2023/12/28 08:29:28;;;;;;;191.50;113.63;;;3.20;1.00;;;;;;5075884;28;20040;-76
2023/12/28 08:31:56;;;;;;;187.82;114.70;;;3.30;1.00;;;;;;5077685;28;20306;-77
2023/12/28 08:34:24;;;;;;;193.60;113.38;;;3.30;1.00;;;;;;5075706;28;20503;-77
2023/12/28 08:36:52;;;;;;;195.07;120.55;;;3.40;1.00;;;;;;5079755;28;20067;-79
2023/12/28 08:39:21;;;;;;;186.18;111.47;;;3.40;1.00;;;;;;5085045;28;20041;-78
2023/12/28 08:41:48;;;;;;;178.63;109.38;;;3.50;99.90;;;;;;5063939;28;20406;-77
2023/12/28 08:44:17;;;;;;;184.15;110.20;;;3.50;99.90;;;;;;5080972;28;20032;-77
2023/12/28 08:46:45;;;;;;;185.50;112.78;;;3.50;99.90;;;;;;5081526;28;20527;-79
2023/12/28 08:49:15;;;;;;;187.50;110.10;;;3.60;1.00;;;;;;5076598;28;20075;-78
2023/12/28 08:51:43;;;;;;;197.18;114.18;;;3.70;1.00;;;;;;5079590;28;20047;-77
2023/12/28 08:54:10;;;;;;;190.77;113.82;;;3.70;1.00;;;;;;5071660;28;20040;-77
2023/12/28 08:56:38;;;;;;;203.77;122.72;;;3.80;1.00;;;;;;5080521;28;20113;-76
2023/12/28 08:59:05;;;;;;;193.90;118.32;;;3.90;1.00;;;;;;5073030;28;20044;-79
2023/12/28 09:01:34;;;;;;;192.43;114.68;;;4.00;1.00;;;;;;5071297;28;20051;-78
2023/12/28 09:04:02;;;;;;;196.23;118.75;;;4.20;99.90;;;;;;5075400;28;20094;-79
2023/12/28 09:06:29;;;;;;;184.60;106.38;;;4.20;1.00;;;;;;5076721;28;20079;-78
2023/12/28 09:08:57;;;;;;;186.45;108.10;;;4.20;71.40;;;;;;5068679;28;20134;-77
2023/12/28 09:11:25;;;;;;;185.07;105.53;;;4.40;1.00;;;;;;5079201;28;20492;-77
2023/12/28 09:13:52;;;;;;;183.55;109.72;;;4.50;59.50;;;;;;5076706;28;20036;-78
2023/12/28 09:16:20;;;;;;;187.60;110.70;;;4.70;1.00;;;;;;5068001;28;20083;-77
2023/12/28 09:18:49;;;;;;;182.57;108.50;;;4.80;1.00;;;;;;5071403;28;20044;-80
2023/12/28 09:21:16;;;;;;;210.73;121.07;;;5.00;1.00;;;;;;5077965;28;20110;-78
2023/12/28 09:23:45;;;;;;;203.30;117.00;;;5.00;1.00;;;;;;5076704;28;20056;-78
2023/12/28 09:26:12;;;;;;;230.50;131.68;;;5.20;1.00;;;;;;5061964;28;20066;-77
2023/12/28 09:28:40;;;;;;;262.02;148.95;;;5.40;1.00;;;;;;5073580;28;20044;-77
2023/12/28 09:31:08;;;;;;;279.05;163.73;;;5.60;1.00;;;;;;5070684;28;20098;-76
2023/12/28 09:33:35;;;;;;;294.95;171.15;;;5.70;99.90;;;;;;5078924;28;20153;-77
2023/12/28 09:36:07;;;;;;;320.85;183.95;;;5.90;1.00;;;;;;5061061;28;20039;-76
2023/12/28 09:38:35;;;;;;;327.27;185.65;;;6.10;99.90;;;;;;5074813;28;20062;-76
2023/12/28 09:41:15;;;;;;;328.88;185.45;;;6.10;1.00;;;;;;5076428;28;20043;-76
2023/12/28 09:43:50;;;;;;;327.55;185.65;;;6.20;99.90;;;;;;5061829;28;20040;-77
2023/12/28 09:46:17;;;;;;;313.20;178.60;;;6.30;99.90;;;;;;5076011;28;20515;-77
2023/12/28 09:48:45;;;;;;;310.30;178.25;;;6.30;99.90;;;;;;5076717;28;20044;-77
2023/12/28 09:51:14;;;;;;;309.17;173.50;;;6.40;99.90;;;;;;5079849;28;20047;-78
2023/12/28 09:53:44;;;;;;;314.15;172.50;;;6.50;99.90;;;;;;5073941;28;20063;-77
2023/12/28 09:56:11;;;;;;;299.92;171.35;;;6.50;99.90;;;;;;5074868;28;20040;-77
2023/12/28 09:58:40;;;;;;;304.83;175.68;;;6.50;99.90;;;;;;5072444;28;20079;-77
2023/12/28 10:01:10;;;;;;;324.52;182.57;;;6.60;57.20;;;;;;5086083;28;20044;-77
2023/12/28 10:03:38;;;;;;;302.52;164.70;;;6.70;14.10;;;;;;5094480;28;20044;-78
2023/12/28 10:06:06;;;;;;;300.83;165.05;;;6.90;1.00;;;;;;5096383;28;20041;-78
2023/12/28 10:08:35;;;;;;;258.00;149.30;;;7.00;1.00;;;;;;5085194;28;20395;-77
2023/12/28 10:11:04;;;;;;;287.05;146.80;;;7.10;99.90;;;;;;5078910;28;20576;-79
2023/12/28 10:13:34;;;;;;;249.65;140.32;;;7.10;1.00;;;;;;5075795;28;20131;-77
2023/12/28 10:16:03;;;;;;;221.30;132.30;;;7.20;1.00;;;;;;5080937;28;20117;-78
2023/12/28 10:18:30;;;;;;;233.85;132.27;;;7.30;1.00;;;;;;5084497;28;20063;-78
2023/12/28 10:20:58;;;;;;;222.70;130.82;;;7.40;99.90;;;;;;5085406;23;20041;-80
2023/12/28 10:26:21;;;;;;;244.32;146.80;;;7.40;99.90;;;;;;5130803;23;20061;-80
2023/12/28 10:28:49;;;;;;;236.18;141.10;;;7.40;99.90;;;;;;4993706;28;20062;-80
2023/12/28 10:31:17;;;;;;;223.32;128.00;;;7.40;99.90;;;;;;4995032;28;20069;-81
2023/12/28 10:33:46;;;;;;;210.52;124.30;;;7.50;1.00;;;;;;4994320;28;20121;-81
2023/12/28 10:36:16;;;;;;;194.63;115.93;;;7.60;99.90;;;;;;4974989;28;20150;-81
2023/12/28 10:38:46;;;;;;;188.63;116.05;;;7.70;99.90;;;;;;4994035;28;20054;-79
2023/12/28 10:41:16;;;;;;;192.55;113.93;;;7.70;99.20;;;;;;4975685;28;20053;-81
2023/12/28 10:43:47;;;;;;;185.63;111.70;;;7.80;99.90;;;;;;4975723;28;20524;-81
2023/12/28 10:46:25;;;;;;;198.80;116.80;;;7.80;47.40;;;;;;4993274;28;20045;-81
2023/12/28 10:48:57;;;;;;;204.27;121.20;;;7.90;1.00;;;;;;4994468;28;20421;-80
2023/12/28 10:51:29;;;;;;;201.15;119.80;;;7.90;1.00;;;;;;4993743;28;20478;-82
2023/12/28 10:54:13;;;;;;;191.18;118.93;;;8.00;1.00;;;;;;4993853;28;20070;-80
2023/12/28 10:56:47;;;;;;;187.13;113.50;;;8.10;1.00;;;;;;4993246;28;20069;-86
2023/12/28 10:59:25;;;;;;;187.57;111.47;;;8.30;1.00;;;;;;4980257;28;20050;-80
2023/12/28 11:05:02;;;;;;;170.25;102.93;;;8.40;99.90;;;;;;4993082;28;20133;-83
2023/12/28 11:07:46;;;;;;;167.15;98.97;;;8.50;99.90;;;;;;4977856;28;20050;-83
2023/12/28 11:10:26;;;;;;;163.05;98.00;;;8.60;99.90;;;;;;4977525;28;20038;-82
2023/12/28 11:12:55;;;;;;;155.38;97.05;;;8.60;99.90;;;;;;4994455;28;20057;-82
2023/12/28 11:15:26;;;;;;;167.68;99.68;;;8.70;99.90;;;;;;4995402;28;20108;-82
2023/12/28 11:17:54;;;;;;;176.73;105.50;;;8.80;12.30;;;;;;4996991;28;20046;-83
2023/12/28 11:20:22;;;;;;;163.63;101.85;;;8.90;1.00;;;;;;4994891;28;20042;-82
2023/12/28 11:22:51;;;;;;;175.77;110.05;;;9.00;1.00;;;;;;4992476;28;20038;-82
2023/12/28 11:25:19;;;;;;;170.15;104.95;;;9.10;1.00;;;;;;4992284;28;20076;-83
2023/12/28 11:27:47;;;;;;;160.07;102.40;;;9.10;1.00;;;;;;4994173;28;20042;-83
2023/12/28 11:30:15;;;;;;;166.50;103.55;;;9.20;1.00;;;;;;4994204;28;20128;-82
2023/12/28 11:32:45;;;;;;;164.65;98.40;;;9.20;1.00;;;;;;4992886;28;20046;-82
2023/12/28 11:35:14;;;;;;;158.65;95.15;;;9.30;1.00;;;;;;4991645;28;20665;-81
2023/12/28 11:37:44;;;;;;;161.65;96.15;;;9.40;1.00;;;;;;4992516;28;20065;-80
2023/12/28 11:40:14;;;;;;;166.20;100.65;;;9.40;1.00;;;;;;4992576;28;20038;-82
2023/12/28 11:42:51;;;;;;;165.52;102.95;;;9.50;1.00;;;;;;4992505;28;20038;-80
2023/12/28 11:45:19;;;;;;;165.85;103.40;;;9.60;99.90;;;;;;4991831;28;20065;-80
2023/12/28 11:47:48;;;;;;;162.52;99.07;;;9.60;99.90;;;;;;4974949;28;20089;-80
2023/12/28 11:50:15;;;;;;;146.05;94.05;;;9.60;1.00;;;;;;4992932;28;20047;-81
2023/12/28 11:52:43;;;;;;;154.55;95.05;;;9.70;1.00;;;;;;4995065;28;20038;-80
2023/12/28 11:55:11;;;;;;;150.93;95.45;;;9.70;1.00;;;;;;4992053;28;20134;-81
2023/12/28 11:57:39;;;;;;;147.77;93.80;;;9.70;1.00;;;;;;4994614;28;20043;-81
2023/12/28 12:00:08;;;;;;;138.48;86.05;;;9.70;1.00;;;;;;5001828;28;20047;-82
2023/12/28 12:02:36;;;;;;;144.13;88.40;;;9.80;1.00;;;;;;4993422;28;20077;-80
2023/12/28 12:05:10;;;;;;;158.75;95.00;;;9.80;1.00;;;;;;4991240;28;20402;-81
2023/12/28 12:07:37;;;;;;;149.43;90.97;;;9.90;1.00;;;;;;4992850;28;20097;-82
2023/12/28 12:10:05;;;;;;;143.75;89.05;;;10.00;99.90;;;;;;4993761;28;20043;-80
2023/12/28 12:12:33;;;;;;;139.88;89.50;;;10.00;99.90;;;;;;4993909;28;20058;-82
2023/12/28 12:15:01;;;;;;;142.32;93.95;;;10.10;99.90;;;;;;4991563;28;20136;-80
2023/12/28 12:17:29;;;;;;;152.43;98.35;;;10.10;99.90;;;;;;4992037;28;20646;-81
2023/12/28 12:19:57;;;;;;;155.02;96.95;;;10.10;91.80;;;;;;4990417;28;20038;-80
2023/12/28 12:22:27;;;;;;;150.65;93.25;;;10.20;55.40;;;;;;4991099;28;20489;-79
2023/12/28 12:24:56;;;;;;;160.23;99.10;;;10.30;1.00;;;;;;4990535;28;20763;-80
2023/12/28 12:27:24;;;;;;;154.40;94.20;;;10.30;1.00;;;;;;4991756;28;20485;-81
2023/12/28 12:29:51;;;;;;;153.77;98.78;;;10.30;1.00;;;;;;4991294;28;20041;-82
2023/12/28 12:32:19;;;;;;;165.38;102.95;;;10.40;1.00;;;;;;4991800;28;20099;-80
2023/12/28 12:34:46;;;;;;;165.63;104.63;;;10.40;1.00;;;;;;4991760;28;20053;-81
2023/12/28 12:37:14;;;;;;;164.93;108.70;;;10.40;1.00;;;;;;4991754;28;20050;-80
2023/12/28 12:39:44;;;;;;;188.90;118.00;;;10.40;1.00;;;;;;4990752;28;20058;-81